Terminal Aerodrome Forecast
Issued by NWS

Home | Current Version | Previous Version | Text Only | Print | Product List | Glossary On
Versions: 1 2 3 4 5 6 7 8 9 10 11 12 13 14 15 16 17 18 19 20 21 22 23 24 25 26
581
FTUS43 KGRR 200540
TAFBTL
TAF
KBTL 200540Z 2006/2106 20012G18KT 5SM -RA BR OVC035
     FM200900 20011KT 2SM RA BR OVC010 WS014/21050KT
     FM201500 22008KT 3/4SM RA BR OVC004 WS014/22055KT
     FM201800 22008KT 1/2SM RA FG OVC003=

USA.gov is the U.S. government's official web portal to all federal, state and local government web resources and services.